Time,TemperatureF,DewpointF,PressureIn,WindDirection,WindDirectionDegrees,WindSpeedMPH,WindSpeedGustMPH,Humidity,HourlyPrecipIn,Conditions,Clouds,dailyrainin,SoftwareType,DateUTC
2013-02-22 00:04:00,77.3,74.1,29.72,WSW,248,2.0,-999.0,90,0.00,,,0.00,Wunderground v.1.15,2013-02-21 14:04:00,
2013-02-22 00:09:00,77.3,74.1,29.72,WSW,248,2.0,-999.0,90,0.00,,,0.00,Wunderground v.1.15,2013-02-21 14:09:00,
2013-02-22 00:14:00,77.3,74.1,29.72,WSW,248,2.0,-999.0,90,0.00,,,0.00,Wunderground v.1.15,2013-02-21 14:14:00,
2013-02-22 00:19:00,77.3,74.1,29.72,WSW,248,2.0,-999.0,90,0.00,,,0.00,Wunderground v.1.15,2013-02-21 14:19:00,
2013-02-22 00:24:00,77.9,74.1,29.73,WSW,248,3.0,-999.0,88,0.00,,,0.00,Wunderground v.1.15,2013-02-21 14:24:00,
2013-02-22 00:29:00,77.9,74.1,29.73,WSW,248,3.0,-999.0,88,0.00,,,0.00,Wunderground v.1.15,2013-02-21 14:29:00,
2013-02-22 00:34:00,77.9,74.1,29.73,WSW,248,3.0,-999.0,88,0.00,,,0.00,Wunderground v.1.15,2013-02-21 14:34:00,
2013-02-22 00:39:00,78.4,74.9,29.73,WSW,248,2.0,-999.0,89,0.00,,,0.00,Wunderground v.1.15,2013-02-21 14:39:00,
2013-02-22 00:44:00,78.4,74.9,29.73,WSW,248,2.0,-999.0,89,0.00,,,0.00,Wunderground v.1.15,2013-02-21 14:44:00,
2013-02-22 00:49:00,78.4,74.9,29.73,WSW,248,2.0,-999.0,89,0.00,,,0.00,Wunderground v.1.15,2013-02-21 14:49:00,
2013-02-22 00:54:00,78.1,75.3,29.72,ESE,113,0.0,-999.0,91,0.00,,,0.00,Wunderground v.1.15,2013-02-21 14:54:00,
2013-02-22 00:59:00,78.1,75.3,29.72,ESE,113,0.0,-999.0,91,0.00,,,0.00,Wunderground v.1.15,2013-02-21 14:59:00,
2013-02-22 01:04:00,78.1,75.3,29.72,ESE,113,0.0,-999.0,91,0.00,,,0.00,Wunderground v.1.15,2013-02-21 15:04:00,
2013-02-22 01:09:00,77.4,74.6,29.71,SE,135,0.0,-999.0,91,0.00,,,0.00,Wunderground v.1.15,2013-02-21 15:09:00,
2013-02-22 01:14:00,77.4,74.6,29.71,SE,135,0.0,-999.0,91,0.00,,,0.00,Wunderground v.1.15,2013-02-21 15:14:00,
2013-02-22 01:19:00,77.4,74.6,29.71,SE,135,0.0,-999.0,91,0.00,,,0.00,Wunderground v.1.15,2013-02-21 15:19:00,
2013-02-22 01:24:00,77.1,74.6,29.70,SE,135,1.0,-999.0,92,0.00,,,0.00,Wunderground v.1.15,2013-02-21 15:24:00,
2013-02-22 01:29:00,77.1,74.6,29.70,SE,135,1.0,-999.0,92,0.00,,,0.00,Wunderground v.1.15,2013-02-21 15:29:00,
2013-02-22 01:34:00,77.1,74.6,29.70,SE,135,1.0,-999.0,92,0.00,,,0.00,Wunderground v.1.15,2013-02-21 15:34:00,
2013-02-22 01:39:00,76.9,74.4,29.70,ESE,113,0.0,-999.0,92,0.00,,,0.00,Wunderground v.1.15,2013-02-21 15:39:00,
2013-02-22 01:44:00,76.9,74.4,29.70,ESE,113,0.0,-999.0,92,0.00,,,0.00,Wunderground v.1.15,2013-02-21 15:44:00,
2013-02-22 01:49:00,76.9,74.4,29.70,ESE,113,0.0,-999.0,92,0.00,,,0.00,Wunderground v.1.15,2013-02-21 15:49:00,
2013-02-22 01:54:00,77.1,73.9,29.68,WNW,293,0.0,-999.0,90,0.00,,,0.00,Wunderground v.1.15,2013-02-21 15:54:00,
2013-02-22 01:59:00,77.1,73.9,29.68,WNW,293,0.0,-999.0,90,0.00,,,0.00,Wunderground v.1.15,2013-02-21 15:59:00,
2013-02-22 02:04:00,77.1,73.9,29.68,WNW,293,0.0,-999.0,90,0.00,,,0.00,Wunderground v.1.15,2013-02-21 16:04:00,
2013-02-22 02:09:00,77.6,73.8,29.69,WSW,248,1.0,-999.0,88,0.00,,,0.00,Wunderground v.1.15,2013-02-21 16:09:00,
2013-02-22 02:14:00,77.6,73.8,29.69,WSW,248,1.0,-999.0,88,0.00,,,0.00,Wunderground v.1.15,2013-02-21 16:14:00,
2013-02-22 02:19:00,77.6,73.8,29.69,WSW,248,1.0,-999.0,88,0.00,,,0.00,Wunderground v.1.15,2013-02-21 16:19:00,
2013-02-22 02:24:00,77.8,74.3,29.70,WSW,248,1.0,-999.0,89,0.00,,,0.00,Wunderground v.1.15,2013-02-21 16:24:00,
2013-02-22 02:29:00,77.8,74.3,29.70,WSW,248,1.0,-999.0,89,0.00,,,0.00,Wunderground v.1.15,2013-02-21 16:29:00,
2013-02-22 02:34:00,77.8,74.3,29.70,WSW,248,1.0,-999.0,89,0.00,,,0.00,Wunderground v.1.15,2013-02-21 16:34:00,
2013-02-22 02:39:00,77.9,73.4,29.69,WSW,248,2.0,-999.0,86,0.00,,,0.00,Wunderground v.1.15,2013-02-21 16:39:00,
2013-02-22 02:44:00,77.9,73.4,29.69,WSW,248,2.0,-999.0,86,0.00,,,0.00,Wunderground v.1.15,2013-02-21 16:44:00,
2013-02-22 02:49:00,77.9,73.4,29.69,WSW,248,2.0,-999.0,86,0.00,,,0.00,Wunderground v.1.15,2013-02-21 16:49:00,
2013-02-22 02:54:00,78.7,73.8,29.68,WSW,248,3.0,-999.0,85,0.00,,,0.00,Wunderground v.1.15,2013-02-21 16:54:00,
2013-02-22 02:59:00,78.7,73.8,29.68,WSW,248,3.0,-999.0,85,0.00,,,0.00,Wunderground v.1.15,2013-02-21 16:59:00,
2013-02-22 03:04:00,78.7,73.8,29.68,WSW,248,3.0,-999.0,85,0.00,,,0.00,Wunderground v.1.15,2013-02-21 17:04:00,
2013-02-22 03:09:00,78.7,74.5,29.68,SE,135,1.0,-999.0,87,0.00,,,0.00,Wunderground v.1.15,2013-02-21 17:09:00,
2013-02-22 03:14:00,78.7,74.5,29.68,SE,135,1.0,-999.0,87,0.00,,,0.00,Wunderground v.1.15,2013-02-21 17:14:00,
2013-02-22 03:19:00,78.7,74.5,29.68,SE,135,1.0,-999.0,87,0.00,,,0.00,Wunderground v.1.15,2013-02-21 17:19:00,
2013-02-22 03:24:00,77.7,74.2,29.66,SE,135,0.0,-999.0,89,0.00,,,0.00,Wunderground v.1.15,2013-02-21 17:24:00,
2013-02-22 03:29:00,77.7,74.2,29.66,SE,135,0.0,-999.0,89,0.00,,,0.00,Wunderground v.1.15,2013-02-21 17:29:00,
2013-02-22 03:34:00,77.7,74.2,29.66,SE,135,0.0,-999.0,89,0.00,,,0.00,Wunderground v.1.15,2013-02-21 17:34:00,
2013-02-22 03:39:00,77.3,73.5,29.67,WSW,248,1.0,-999.0,88,0.00,,,0.00,Wunderground v.1.15,2013-02-21 17:39:00,
2013-02-22 03:44:00,77.3,73.5,29.67,WSW,248,1.0,-999.0,88,0.00,,,0.00,Wunderground v.1.15,2013-02-21 17:44:00,
2013-02-22 03:49:00,77.3,73.5,29.67,WSW,248,1.0,-999.0,88,0.00,,,0.00,Wunderground v.1.15,2013-02-21 17:49:00,
2013-02-22 03:54:00,77.7,73.5,29.67,WSW,248,0.0,-999.0,87,0.00,,,0.00,Wunderground v.1.15,2013-02-21 17:54:00,
2013-02-22 03:59:00,77.7,73.5,29.67,WSW,248,0.0,-999.0,87,0.00,,,0.00,Wunderground v.1.15,2013-02-21 17:59:00,
2013-02-22 04:04:00,77.7,73.5,29.67,WSW,248,0.0,-999.0,87,0.00,,,0.00,Wunderground v.1.15,2013-02-21 18:04:00,
2013-02-22 04:09:00,77.6,74.1,29.67,ESE,113,0.0,-999.0,89,0.00,,,0.00,Wunderground v.1.15,2013-02-21 18:09:00,
2013-02-22 04:14:00,77.6,74.1,29.67,ESE,113,0.0,-999.0,89,0.00,,,0.00,Wunderground v.1.15,2013-02-21 18:14:00,
2013-02-22 04:19:00,77.6,74.1,29.67,ESE,113,0.0,-999.0,89,0.00,,,0.00,Wunderground v.1.15,2013-02-21 18:19:00,
2013-02-22 04:24:00,76.9,73.7,29.68,SE,135,0.0,-999.0,90,0.00,,,0.00,Wunderground v.1.15,2013-02-21 18:24:00,
2013-02-22 04:29:00,76.9,73.7,29.68,SE,135,0.0,-999.0,90,0.00,,,0.00,Wunderground v.1.15,2013-02-21 18:29:00,
2013-02-22 04:34:00,76.9,73.7,29.68,SE,135,0.0,-999.0,90,0.00,,,0.00,Wunderground v.1.15,2013-02-21 18:34:00,
2013-02-22 04:39:00,76.3,73.5,29.68,WSW,248,0.0,-999.0,91,0.00,,,0.00,Wunderground v.1.15,2013-02-21 18:39:00,
2013-02-22 04:44:00,76.3,73.5,29.68,WSW,248,0.0,-999.0,91,0.00,,,0.00,Wunderground v.1.15,2013-02-21 18:44:00,
2013-02-22 04:49:00,76.3,73.5,29.68,WSW,248,0.0,-999.0,91,0.00,,,0.00,Wunderground v.1.15,2013-02-21 18:49:00,
2013-02-22 04:54:00,76.0,73.5,29.68,WSW,248,0.0,-999.0,92,0.00,,,0.00,Wunderground v.1.15,2013-02-21 18:54:00,
2013-02-22 04:59:00,76.0,73.5,29.68,WSW,248,0.0,-999.0,92,0.00,,,0.00,Wunderground v.1.15,2013-02-21 18:59:00,
2013-02-22 05:04:00,76.0,73.5,29.68,WSW,248,0.0,-999.0,92,0.00,,,0.00,Wunderground v.1.15,2013-02-21 19:04:00,
2013-02-22 05:09:00,75.7,72.9,29.68,WSW,248,0.0,-999.0,91,0.00,,,0.00,Wunderground v.1.15,2013-02-21 19:09:00,
2013-02-22 05:14:00,75.7,72.9,29.68,WSW,248,0.0,-999.0,91,0.00,,,0.00,Wunderground v.1.15,2013-02-21 19:14:00,
2013-02-22 05:19:00,75.7,72.9,29.68,WSW,248,0.0,-999.0,91,0.00,,,0.00,Wunderground v.1.15,2013-02-21 19:19:00,
2013-02-22 05:24:00,75.8,73.3,29.69,N/A,-737280,0.0,-999.0,92,0.00,,,0.00,Wunderground v.1.15,2013-02-21 19:24:00,
2013-02-22 05:29:00,75.8,73.3,29.69,N/A,-737280,0.0,-999.0,92,0.00,,,0.00,Wunderground v.1.15,2013-02-21 19:29:00,
2013-02-22 05:34:00,75.8,73.3,29.69,N/A,-737280,0.0,-999.0,92,0.00,,,0.00,Wunderground v.1.15,2013-02-21 19:34:00,
2013-02-22 05:39:00,75.9,73.4,29.70,N/A,-737280,0.0,-999.0,92,0.00,,,0.00,Wunderground v.1.15,2013-02-21 19:39:00,
2013-02-22 05:44:00,75.9,73.4,29.70,N/A,-737280,0.0,-999.0,92,0.00,,,0.00,Wunderground v.1.15,2013-02-21 19:44:00,
2013-02-22 05:49:00,75.9,73.4,29.70,N/A,-737280,0.0,-999.0,92,0.00,,,0.00,Wunderground v.1.15,2013-02-21 19:49:00,
2013-02-22 05:54:00,76.0,73.5,29.71,N/A,-737280,0.0,-999.0,92,0.00,,,0.00,Wunderground v.1.15,2013-02-21 19:54:00,
2013-02-22 05:59:00,76.0,73.5,29.71,N/A,-737280,0.0,-999.0,92,0.00,,,0.00,Wunderground v.1.15,2013-02-21 19:59:00,
2013-02-22 06:04:00,76.0,73.5,29.71,N/A,-737280,0.0,-999.0,92,0.00,,,0.00,Wunderground v.1.15,2013-02-21 20:04:00,
2013-02-22 06:09:00,76.0,73.5,29.71,N/A,-737280,0.0,-999.0,92,0.00,,,0.00,Wunderground v.1.15,2013-02-21 20:09:00,
2013-02-22 06:14:00,76.0,73.5,29.71,N/A,-737280,0.0,-999.0,92,0.00,,,0.00,Wunderground v.1.15,2013-02-21 20:14:00,
2013-02-22 06:19:00,76.0,73.5,29.71,N/A,-737280,0.0,-999.0,92,0.00,,,0.00,Wunderground v.1.15,2013-02-21 20:19:00,
2013-02-22 06:24:00,76.2,73.7,29.72,SE,135,0.0,-999.0,92,0.00,,,0.00,Wunderground v.1.15,2013-02-21 20:24:00,
2013-02-22 06:29:00,76.2,73.7,29.72,SE,135,0.0,-999.0,92,0.00,,,0.00,Wunderground v.1.15,2013-02-21 20:29:00,
2013-02-22 06:34:00,76.2,73.7,29.72,SE,135,0.0,-999.0,92,0.00,,,0.00,Wunderground v.1.15,2013-02-21 20:34:00,
2013-02-22 06:39:00,76.3,73.8,29.72,WSW,248,0.0,-999.0,92,0.00,,,0.00,Wunderground v.1.15,2013-02-21 20:39:00,
2013-02-22 06:44:00,76.3,73.8,29.72,WSW,248,0.0,-999.0,92,0.00,,,0.00,Wunderground v.1.15,2013-02-21 20:44:00,
2013-02-22 06:49:00,76.3,73.8,29.72,WSW,248,0.0,-999.0,92,0.00,,,0.00,Wunderground v.1.15,2013-02-21 20:49:00,
2013-02-22 06:54:00,76.4,73.9,29.73,N/A,-737280,0.0,-999.0,92,0.00,,,0.00,Wunderground v.1.15,2013-02-21 20:54:00,
2013-02-22 06:55:00,76.4,73.9,29.72,ESE,104,0.6,6.2,92,0.07,,BKN100,0.00,VWS V13.01,2013-02-21 20:55:00,
2013-02-22 06:59:00,76.4,73.9,29.73,N/A,-737280,0.0,-999.0,92,0.00,,,0.00,Wunderground v.1.15,2013-02-21 20:59:00,
2013-02-22 07:00:00,76.7,74.2,29.72,SW,227,0.6,6.2,92,0.07,,BKN100,0.00,VWS V13.01,2013-02-21 21:00:00,
2013-02-22 07:04:00,76.4,73.9,29.73,N/A,-737280,0.0,-999.0,92,0.00,,,0.00,Wunderground v.1.15,2013-02-21 21:04:00,
2013-02-22 07:05:00,76.9,74.1,29.72,WSW,239,0.6,6.2,91,0.03,,BKN240,0.00,VWS V13.01,2013-02-21 21:05:00,
2013-02-22 07:09:00,77.0,74.2,29.73,N/A,-737280,0.0,-999.0,91,0.00,,,0.00,Wunderground v.1.15,2013-02-21 21:09:00,
2013-02-22 07:10:00,77.0,74.2,29.72,WSW,239,0.6,6.2,91,0.03,,BKN240,0.00,VWS V13.01,2013-02-21 21:10:00,
2013-02-22 07:14:00,77.0,74.2,29.73,N/A,-737280,0.0,-999.0,91,0.00,,,0.00,Wunderground v.1.15,2013-02-21 21:14:00,
2013-02-22 07:15:00,77.3,74.5,29.73,WSW,237,0.6,6.2,91,0.03,,BKN240,0.00,VWS V13.01,2013-02-21 21:15:00,
2013-02-22 07:19:00,77.0,74.2,29.73,N/A,-737280,0.0,-999.0,91,0.00,,,0.00,Wunderground v.1.15,2013-02-21 21:19:00,
2013-02-22 07:20:00,77.6,74.8,29.73,SE,144,0.6,6.2,91,0.03,,BKN240,0.00,VWS V13.01,2013-02-21 21:20:00,
2013-02-22 07:24:00,77.8,74.6,29.73,N/A,-737280,0.0,-999.0,90,0.00,,,0.00,Wunderground v.1.15,2013-02-21 21:24:00,
2013-02-22 07:25:00,78.0,74.8,29.73,WSW,252,0.6,6.2,90,0.03,,BKN240,0.00,VWS V13.01,2013-02-21 21:25:00,
2013-02-22 07:29:00,77.8,74.6,29.73,N/A,-737280,0.0,-999.0,90,0.00,,,0.00,Wunderground v.1.15,2013-02-21 21:29:00,
2013-02-22 07:30:00,78.4,75.2,29.73,WSW,250,0.6,6.2,90,0.03,,BKN240,0.00,VWS V13.01,2013-02-21 21:30:00,
2013-02-22 07:34:00,77.8,74.6,29.73,N/A,-737280,0.0,-999.0,90,0.00,,,0.00,Wunderground v.1.15,2013-02-21 21:34:00,
2013-02-22 07:35:00,78.7,75.2,29.73,WSW,251,0.6,6.2,89,0.03,,BKN240,0.00,VWS V13.01,2013-02-21 21:35:00,
2013-02-22 07:39:00,78.9,74.7,29.73,N/A,-737280,0.0,-999.0,87,0.00,,,0.00,Wunderground v.1.15,2013-02-21 21:39:00,
2013-02-22 07:40:00,79.1,75.2,29.73,WSW,254,0.6,6.2,88,0.03,,BKN240,0.00,VWS V13.01,2013-02-21 21:40:00,
2013-02-22 07:44:00,78.9,74.7,29.73,N/A,-737280,0.0,-999.0,87,0.00,,,0.00,Wunderground v.1.15,2013-02-21 21:44:00,
2013-02-22 07:45:00,79.3,75.1,29.73,West,264,0.6,6.2,87,0.03,,BKN240,0.00,VWS V13.01,2013-02-21 21:45:00,
2013-02-22 07:49:00,78.9,74.7,29.73,N/A,-737280,0.0,-999.0,87,0.00,,,0.00,Wunderground v.1.15,2013-02-21 21:49:00,
2013-02-22 07:51:00,79.7,75.5,29.73,WSW,242,0.6,6.2,87,0.03,,BKN240,0.00,VWS V13.01,2013-02-21 21:51:00,
2013-02-22 07:54:00,79.9,75.3,29.74,WSW,248,1.0,-999.0,86,0.00,,,0.00,Wunderground v.1.15,2013-02-21 21:54:00,
2013-02-22 07:56:00,80.3,75.7,29.74,WSW,245,4.4,6.2,86,0.03,,BKN240,0.00,VWS V13.01,2013-02-21 21:56:00,
2013-02-22 07:59:00,79.9,75.3,29.74,WSW,248,1.0,-999.0,86,0.00,,,0.00,Wunderground v.1.15,2013-02-21 21:59:00,
2013-02-22 08:01:00,80.9,76.7,29.74,WSW,256,0.6,6.2,87,0.00,,BKN240,0.00,VWS V13.01,2013-02-21 22:01:00,
2013-02-22 08:04:00,79.9,75.3,29.74,WSW,248,1.0,-999.0,86,0.00,,,0.00,Wunderground v.1.15,2013-02-21 22:04:00,
2013-02-22 08:06:00,81.7,76.8,29.74,SW,234,0.6,6.2,85,0.00,,BKN240,0.00,VWS V13.01,2013-02-21 22:06:00,
2013-02-22 08:09:00,82.0,76.0,29.74,WSW,248,0.0,-999.0,82,0.00,,,0.00,Wunderground v.1.15,2013-02-21 22:09:00,
2013-02-22 08:11:00,82.4,77.4,29.74,West,269,0.6,6.2,85,0.00,,BKN240,0.00,VWS V13.01,2013-02-21 22:11:00,
2013-02-22 08:16:00,83.3,76.9,29.74,West,272,0.6,6.2,81,0.00,,BKN240,0.00,VWS V13.01,2013-02-21 22:16:00,
2013-02-22 08:21:00,82.0,76.0,29.74,WSW,248,0.0,-999.0,82,0.00,,,0.00,Wunderground v.1.15,2013-02-21 22:21:00,
2013-02-22 08:30:00,84.3,76.7,29.74,WSW,248,0.6,3.8,78,0.00,,BKN240,0.00,VWS V13.01,2013-02-21 22:30:00,
2013-02-22 08:45:00,86.6,77.7,29.74,ESE,112,1.9,6.2,75,0.00,,BKN240,0.00,VWS V13.01,2013-02-21 22:45:00,
2013-02-22 09:00:00,87.8,77.2,29.75,ENE,68,1.9,6.2,71,0.00,,BKN240,0.00,VWS V13.01,2013-02-21 23:00:00,
2013-02-22 09:15:00,88.1,78.8,29.75,ESE,112,1.9,5.0,74,0.00,,BKN240,0.00,VWS V13.01,2013-02-21 23:15:00,
2013-02-22 09:30:00,89.5,78.9,29.75,ENE,68,1.9,5.0,71,0.00,,BKN240,0.00,VWS V13.01,2013-02-21 23:30:00,
2013-02-22 09:45:00,90.8,79.7,29.75,NNW,338,3.1,7.5,70,0.00,,BKN240,0.00,VWS V13.01,2013-02-21 23:45:00,
2013-02-22 10:00:00,91.8,78.8,29.75,NNW,338,3.1,5.0,66,0.00,,BKN240,0.00,VWS V13.01,2013-02-22 00:00:00,
2013-02-22 10:15:00,91.7,77.3,29.75,NNE,22,1.9,6.2,63,0.00,,BKN240,0.00,VWS V13.01,2013-02-22 00:15:00,
2013-02-22 10:30:00,92.4,78.9,29.75,ENE,68,3.1,6.2,65,0.00,,BKN240,0.00,VWS V13.01,2013-02-22 00:30:00,
2013-02-22 10:45:00,92.4,77.5,29.75,NNW,338,3.1,6.2,62,0.00,,BKN240,0.00,VWS V13.01,2013-02-22 00:45:00,
2013-02-22 11:00:00,93.2,78.7,29.75,NNW,338,3.1,6.2,63,0.00,,BKN240,0.00,VWS V13.01,2013-02-22 01:00:00,
2013-02-22 11:15:00,92.4,79.4,29.74,ENE,68,4.4,12.5,66,0.00,,BKN240,0.00,VWS V13.01,2013-02-22 01:15:00,
2013-02-22 11:30:00,90.6,79.5,29.74,ENE,68,5.6,10.0,70,0.00,,BKN240,0.00,VWS V13.01,2013-02-22 01:30:00,
2013-02-22 11:45:00,89.9,78.4,29.73,ENE,68,5.6,11.3,69,0.00,,BKN240,0.00,VWS V13.01,2013-02-22 01:45:00,
2013-02-22 12:00:00,88.8,79.0,29.73,ENE,68,5.6,11.3,73,0.00,,BKN240,0.00,VWS V13.01,2013-02-22 02:00:00,
2013-02-22 12:15:00,89.0,78.8,29.73,ENE,68,4.4,10.0,72,0.00,,BKN240,0.00,VWS V13.01,2013-02-22 02:15:00,
2013-02-22 12:30:00,89.3,79.9,29.73,ENE,68,4.4,10.0,74,0.00,,BKN240,0.00,VWS V13.01,2013-02-22 02:30:00,
2013-02-22 12:45:00,89.5,79.7,29.71,ENE,68,5.6,11.3,73,0.00,,BKN240,0.00,VWS V13.01,2013-02-22 02:45:00,
2013-02-22 13:00:00,89.1,78.9,29.70,ENE,68,5.6,12.5,72,0.00,,BKN240,0.00,VWS V13.01,2013-02-22 03:00:00,
2013-02-22 13:15:00,89.9,79.2,29.70,ENE,68,4.4,12.5,71,0.00,,BKN240,0.00,VWS V13.01,2013-02-22 03:15:00,
2013-02-22 13:30:00,90.6,78.1,29.69,ENE,68,3.1,10.0,67,0.00,,BKN240,0.00,VWS V13.01,2013-02-22 03:30:00,
2013-02-22 13:45:00,91.2,79.2,29.68,ENE,68,4.4,11.3,68,0.00,,BKN240,0.00,VWS V13.01,2013-02-22 03:45:00,
2013-02-22 14:00:00,90.1,79.4,29.67,ENE,68,4.4,10.0,71,0.00,,BKN240,0.00,VWS V13.01,2013-02-22 04:00:00,
2013-02-22 14:15:00,90.7,78.7,29.67,North,0,5.6,8.7,68,0.00,,BKN240,0.00,VWS V13.01,2013-02-22 04:15:00,
2013-02-22 14:30:00,90.8,79.2,29.67,NE,45,4.4,10.0,69,0.00,,BKN240,0.00,VWS V13.01,2013-02-22 04:30:00,
2013-02-22 14:45:00,91.4,78.9,29.67,ENE,68,4.4,8.7,67,0.00,,BKN240,0.00,VWS V13.01,2013-02-22 04:45:00,
2013-02-22 15:00:00,89.4,78.3,29.67,NE,45,4.4,8.7,70,0.00,,BKN240,0.00,VWS V13.01,2013-02-22 05:00:00,
2013-02-22 15:15:00,88.1,78.8,29.66,ENE,68,3.1,8.7,74,0.00,,BKN240,0.00,VWS V13.01,2013-02-22 05:15:00,
2013-02-22 15:30:00,87.6,77.9,29.66,ENE,68,3.1,7.5,73,0.00,,BKN240,0.00,VWS V13.01,2013-02-22 05:30:00,
2013-02-22 15:45:00,87.4,78.1,29.65,NNW,338,3.1,6.2,74,0.00,,BKN240,0.00,VWS V13.01,2013-02-22 05:45:00,
2013-02-22 16:00:00,86.9,78.0,29.64,ENE,68,3.1,6.2,75,0.00,,BKN240,0.00,VWS V13.01,2013-02-22 06:00:00,
2013-02-22 16:15:00,87.0,77.7,29.65,ENE,68,3.1,6.2,74,0.00,,BKN240,0.00,VWS V13.01,2013-02-22 06:15:00,
2013-02-22 16:30:00,87.5,78.2,29.66,ENE,68,4.4,8.7,74,0.00,,BKN240,0.00,VWS V13.01,2013-02-22 06:30:00,
2013-02-22 16:45:00,87.0,77.7,29.66,ENE,68,3.1,7.5,74,0.00,,BKN240,0.00,VWS V13.01,2013-02-22 06:45:00,
2013-02-22 17:00:00,87.1,77.4,29.65,ENE,68,3.1,10.0,73,0.00,,BKN240,0.00,VWS V13.01,2013-02-22 07:00:00,
2013-02-22 17:15:00,87.5,78.2,29.66,ENE,68,4.4,10.0,74,0.00,,BKN240,0.00,VWS V13.01,2013-02-22 07:15:00,
2013-02-22 17:30:00,86.6,77.7,29.67,ENE,68,3.1,8.7,75,0.00,,BKN240,0.00,VWS V13.01,2013-02-22 07:30:00,
2013-02-22 17:45:00,86.4,77.5,29.67,ESE,112,1.9,5.0,75,0.00,,BKN240,0.00,VWS V13.01,2013-02-22 07:45:00,
2013-02-22 18:00:00,86.1,77.7,29.68,ESE,112,3.1,10.0,76,0.00,,BKN240,0.00,VWS V13.01,2013-02-22 08:00:00,
2013-02-22 18:15:00,82.8,75.6,29.69,SE,135,6.9,25.0,79,0.00,,BKN240,0.00,VWS V13.01,2013-02-22 08:15:00,
2013-02-22 18:30:00,79.0,74.1,29.69,SE,135,3.1,11.3,85,0.03,,BKN240,0.03,VWS V13.01,2013-02-22 08:30:00,
2013-02-22 18:45:00,77.8,72.9,29.69,ESE,112,1.9,3.8,85,0.03,,BKN240,0.03,VWS V13.01,2013-02-22 08:45:00,
2013-02-22 19:00:00,77.7,72.8,29.69,West,270,1.9,2.5,85,0.03,,BKN240,0.03,VWS V13.01,2013-02-22 09:00:00,
2013-02-22 19:15:00,78.3,72.7,29.69,WSW,248,0.6,1.3,83,0.03,,BKN240,0.03,VWS V13.01,2013-02-22 09:15:00,
2013-02-22 19:30:00,78.3,73.4,29.70,SE,135,1.9,11.3,85,0.03,,BKN240,0.03,VWS V13.01,2013-02-22 09:30:00,
2013-02-22 19:45:00,77.8,72.9,29.70,SE,135,3.1,7.5,85,0.00,,BKN240,0.03,VWS V13.01,2013-02-22 09:45:00,
2013-02-22 20:00:00,77.6,72.7,29.71,South,180,0.6,1.3,85,0.00,,BKN240,0.03,VWS V13.01,2013-02-22 10:00:00,
2013-02-22 20:15:00,77.6,72.0,29.72,WSW,248,1.9,2.5,83,0.00,,BKN240,0.03,VWS V13.01,2013-02-22 10:15:00,
2013-02-22 20:30:00,78.1,72.9,29.72,ESE,112,0.6,3.8,84,0.00,,BKN240,0.03,VWS V13.01,2013-02-22 10:30:00,
2013-02-22 20:45:00,77.8,72.9,29.72,ESE,112,0.6,0.0,85,0.00,,BKN240,0.03,VWS V13.01,2013-02-22 10:45:00,
2013-02-22 21:00:00,77.4,72.9,29.72,ESE,112,0.6,0.0,86,0.00,,BKN240,0.03,VWS V13.01,2013-02-22 11:00:00,
2013-02-22 21:15:00,77.4,73.2,29.73,ESE,112,0.6,0.0,87,0.00,,BKN240,0.03,VWS V13.01,2013-02-22 11:15:00,
2013-02-22 21:30:00,78.0,73.1,29.73,WSW,248,0.6,2.5,85,0.00,,BKN240,0.03,VWS V13.01,2013-02-22 11:30:00,
2013-02-22 21:45:00,78.4,73.9,29.73,SE,135,0.6,2.5,86,0.00,,BKN240,0.03,VWS V13.01,2013-02-22 11:45:00,
2013-02-22 22:00:00,78.3,73.8,29.74,SE,135,0.6,1.3,86,0.00,,BKN240,0.03,VWS V13.01,2013-02-22 12:00:00,
2013-02-22 22:15:00,78.4,73.9,29.74,South,180,0.6,1.3,86,0.00,,BKN240,0.03,VWS V13.01,2013-02-22 12:15:00,
2013-02-22 22:30:00,78.6,74.1,29.73,South,180,0.6,2.5,86,0.00,,BKN240,0.03,VWS V13.01,2013-02-22 12:30:00,
2013-02-22 22:45:00,78.6,74.4,29.74,ESE,112,0.6,1.3,87,0.00,,BKN240,0.03,VWS V13.01,2013-02-22 12:45:00,
2013-02-22 23:00:00,78.2,74.0,29.74,SE,135,1.9,6.2,87,0.00,,BKN240,0.03,VWS V13.01,2013-02-22 13:00:00,
2013-02-22 23:15:00,77.8,73.6,29.73,ESE,112,1.9,6.2,87,0.00,,BKN240,0.03,VWS V13.01,2013-02-22 13:15:00,
2013-02-22 23:30:00,77.7,73.5,29.73,ESE,112,0.6,2.5,87,0.00,,BKN240,0.03,VWS V13.01,2013-02-22 13:30:00,
2013-02-22 23:45:00,77.6,73.8,29.72,ESE,112,0.6,0.0,88,0.00,,BKN240,0.03,VWS V13.01,2013-02-22 13:45:00,